createdAt,value
2019-04-24T00:00:11.628Z,0
2019-04-24T00:00:39.413Z,0
2019-04-24T00:02:14.578Z,0
2019-04-24T00:03:29.003Z,0
2019-04-24T00:04:16.389Z,0
2019-04-24T00:05:38.327Z,0
2019-04-24T00:07:19.052Z,0
2019-04-24T00:08:44.130Z,0
2019-04-24T00:09:21.660Z,0
2019-04-24T00:10:11.218Z,0
2019-04-24T00:11:37.346Z,0
2019-04-24T00:12:53.311Z,0
2019-04-24T00:14:23.054Z,0
2019-04-24T00:16:15.079Z,0
2019-04-24T00:16:58.835Z,0
2019-04-24T00:17:26.941Z,0
2019-04-24T00:21:01.867Z,0
2019-04-24T00:21:35.169Z,0
2019-04-24T00:22:14.378Z,0
2019-04-24T00:23:09.106Z,0
2019-04-24T00:23:47.922Z,0
2019-04-24T00:24:17.108Z,0
2019-04-24T00:26:19.218Z,0
2019-04-24T00:27:04.625Z,0
2019-04-24T00:27:39.667Z,0
2019-04-24T00:29:47.368Z,0
2019-04-24T00:30:22.799Z,0
2019-04-24T00:31:46.935Z,0
2019-04-24T00:33:14.472Z,0
2019-04-24T00:33:59.858Z,0
2019-04-24T00:34:26.093Z,0
2019-04-24T00:35:16.877Z,0
2019-04-24T00:36:09.781Z,0
2019-04-24T00:37:13.863Z,0
2019-04-24T00:37:57.250Z,0
2019-04-24T00:39:26.936Z,0
2019-04-24T00:39:47.578Z,0
2019-04-24T00:40:31.811Z,0
2019-04-24T00:41:18.368Z,0
2019-04-24T00:42:01.747Z,0
2019-04-24T00:42:29.846Z,0
2019-04-24T00:44:31.206Z,0
2019-04-24T00:45:29.127Z,0
2019-04-24T00:46:06.068Z,0
2019-04-24T00:47:20.876Z,0
2019-04-24T00:48:14.437Z,0
2019-04-24T00:48:44.081Z,0
2019-04-24T00:50:02.007Z,0
2019-04-24T00:50:54.215Z,0
2019-04-24T00:52:00.343Z,0
2019-04-24T00:53:01.838Z,0
2019-04-24T00:53:42.606Z,0
2019-04-24T00:54:07.213Z,0
2019-04-24T00:54:44.047Z,0
2019-04-24T00:55:24.549Z,0
2019-04-24T00:56:49.278Z,0
2019-04-24T00:57:38.974Z,0
2019-04-24T00:58:11.381Z,0
2019-04-24T00:59:09.206Z,0
2019-04-24T00:59:34.740Z,0
2019-04-24T01:00:02.550Z,0
2019-04-24T01:01:02.276Z,0
2019-04-24T01:01:42.038Z,0
2019-04-24T01:03:03.506Z,0
2019-04-24T01:03:47.827Z,0
2019-04-24T01:04:52.974Z,0
2019-04-24T01:05:09.350Z,0
2019-04-24T01:05:54.904Z,0
2019-04-24T01:06:17.216Z,0
2019-04-24T01:07:11.845Z,0
2019-04-24T01:07:40.774Z,0
2019-04-24T01:08:19.027Z,0
2019-04-24T01:09:04.387Z,0
2019-04-24T01:11:00.823Z,0
2019-04-24T01:11:37.737Z,0
2019-04-24T01:12:27.748Z,0
2019-04-24T01:13:39.777Z,0
2019-04-24T01:14:17.146Z,0
2019-04-24T01:15:17.128Z,0
2019-04-24T01:15:57.973Z,0
2019-04-24T01:18:29.188Z,0
2019-04-24T01:19:09.361Z,0
2019-04-24T01:19:56.086Z,0
2019-04-24T01:21:12.245Z,0
2019-04-24T01:21:57.030Z,0
2019-04-24T01:23:15.626Z,0
2019-04-24T01:23:59.329Z,0
2019-04-24T01:25:28.527Z,0
2019-04-24T01:27:13.027Z,0
2019-04-24T01:28:38.089Z,0
2019-04-24T01:29:14.506Z,0
2019-04-24T01:30:23.166Z,0
2019-04-24T01:30:53.208Z,0
2019-04-24T01:32:00.644Z,0
2019-04-24T01:32:42.025Z,0
2019-04-24T01:33:25.842Z,0
2019-04-24T01:34:05.955Z,0
2019-04-24T01:35:21.156Z,0
2019-04-24T01:36:17.108Z,0
2019-04-24T01:37:30.138Z,0
2019-04-24T01:38:10.534Z,0
2019-04-24T01:39:58.570Z,0
2019-04-24T01:40:49.108Z,0
2019-04-24T01:41:25.898Z,0
2019-04-24T01:42:20.008Z,0
2019-04-24T01:43:04.780Z,0
2019-04-24T01:44:10.977Z,0
2019-04-24T01:46:55.135Z,0
2019-04-24T01:49:00.182Z,0
2019-04-24T01:50:15.599Z,0
2019-04-24T01:51:05.190Z,0
2019-04-24T01:51:38.950Z,0
2019-04-24T01:52:32.837Z,0
2019-04-24T01:53:10.086Z,0
2019-04-24T01:53:35.232Z,0
2019-04-24T01:54:29.745Z,0
2019-04-24T01:54:53.162Z,0
2019-04-24T01:55:25.580Z,0
2019-04-24T01:56:22.313Z,0
2019-04-24T01:57:01.260Z,0
2019-04-24T01:57:41.094Z,0
2019-04-24T01:58:24.073Z,0
2019-04-24T01:59:09.697Z,0
2019-04-24T01:59:46.697Z,0
2019-04-24T02:00:33.798Z,0
2019-04-24T02:01:06.934Z,0
2019-04-24T02:01:39.935Z,0
2019-04-24T02:02:43.825Z,0
2019-04-24T02:03:49.328Z,0
2019-04-24T02:04:31.887Z,0
2019-04-24T02:05:09.517Z,0
2019-04-24T02:05:40.732Z,0
2019-04-24T02:06:23.082Z,0
2019-04-24T02:07:16.745Z,0
2019-04-24T02:08:28.834Z,0
2019-04-24T02:10:09.967Z,0
2019-04-24T02:11:22.386Z,0
2019-04-24T02:12:47.455Z,0
2019-04-24T02:13:23.014Z,0
2019-04-24T02:13:57.739Z,0
2019-04-24T02:14:43.271Z,0
2019-04-24T02:15:28.448Z,0
2019-04-24T02:16:35.345Z,0
2019-04-24T02:17:57.956Z,0
2019-04-24T02:18:37.914Z,0
2019-04-24T02:19:17.770Z,0
2019-04-24T02:20:14.618Z,0
2019-04-24T02:21:25.970Z,0
2019-04-24T02:22:01.255Z,0
2019-04-24T02:23:25.216Z,0
2019-04-24T02:24:03.707Z,0
2019-04-24T02:24:53.611Z,0
2019-04-24T02:25:33.041Z,0
2019-04-24T02:26:13.652Z,0
2019-04-24T02:27:01.626Z,0
2019-04-24T02:27:33.826Z,0
2019-04-24T02:28:22.155Z,0
2019-04-24T02:29:29.482Z,0
2019-04-24T02:30:18.372Z,0
2019-04-24T02:31:46.557Z,0
2019-04-24T02:32:34.835Z,0
2019-04-24T02:33:12.268Z,0
2019-04-24T02:34:18.145Z,0
2019-04-24T02:36:37.401Z,0
2019-04-24T02:37:49.334Z,0
2019-04-24T02:38:51.986Z,0
2019-04-24T02:41:06.893Z,0
2019-04-24T02:41:57.135Z,0
2019-04-24T02:42:41.289Z,0
2019-04-24T02:43:10.406Z,0
2019-04-24T02:43:50.832Z,0
2019-04-24T02:45:12.333Z,0
2019-04-24T02:45:50.869Z,0
2019-04-24T02:47:18.663Z,0
2019-04-24T02:49:35.305Z,0
2019-04-24T02:51:15.354Z,0
2019-04-24T02:53:19.500Z,0
2019-04-24T02:53:57.478Z,0
2019-04-24T02:54:52.981Z,0
2019-04-24T02:56:03.345Z,0
2019-04-24T02:57:24.110Z,0
2019-04-24T02:57:55.722Z,0
2019-04-24T02:59:22.290Z,0
2019-04-24T03:00:17.543Z,0
2019-04-24T03:01:19.692Z,0
2019-04-24T03:02:15.566Z,0
2019-04-24T03:02:53.629Z,0
2019-04-24T03:04:45.236Z,0
2019-04-24T03:06:19.913Z,0
2019-04-24T03:08:25.609Z,0
2019-04-24T03:08:59.806Z,0
2019-04-24T03:09:39.428Z,0
2019-04-24T03:11:44.160Z,0
2019-04-24T03:14:58.386Z,0
2019-04-24T03:15:33.702Z,0
2019-04-24T03:18:16.840Z,0
2019-04-24T03:20:22.976Z,0
2019-04-24T03:21:07.175Z,0
2019-04-24T03:22:33.974Z,0
2019-04-24T03:23:26.324Z,0
2019-04-24T03:24:32.585Z,0
2019-04-24T03:27:51.276Z,0
2019-04-24T03:28:27.726Z,0
2019-04-24T03:29:52.990Z,0
2019-04-24T03:36:41.676Z,0
2019-04-24T03:38:51.895Z,0
2019-04-24T03:40:24.343Z,0
2019-04-24T03:42:34.206Z,0
2019-04-24T03:43:20.835Z,0
2019-04-24T03:44:30.649Z,0
2019-04-24T03:46:38.890Z,0
2019-04-24T03:47:35.958Z,0
2019-04-24T03:48:49.066Z,5
2019-04-24T03:49:30.775Z,5
2019-04-24T03:50:12.967Z,5
2019-04-24T03:52:53.180Z,5
2019-04-24T03:54:58.631Z,5
2019-04-24T03:57:06.805Z,5
2019-04-24T03:59:02.800Z,5
2019-04-24T03:59:37.710Z,10
2019-04-24T04:00:33.924Z,10
2019-04-24T04:01:41.257Z,10
2019-04-24T04:02:25.068Z,10
2019-04-24T04:03:02.136Z,10
2019-04-24T04:03:48.623Z,10
2019-04-24T04:04:21.342Z,10
2019-04-24T04:05:05.189Z,10
2019-04-24T04:06:27.348Z,10
2019-04-24T04:07:40.031Z,15
2019-04-24T04:09:51.763Z,15
2019-04-24T04:10:57.265Z,15
2019-04-24T04:12:48.911Z,15
2019-04-24T04:13:44.153Z,20
2019-04-24T04:15:18.047Z,20
2019-04-24T04:16:01.843Z,20
2019-04-24T04:16:37.032Z,20
2019-04-24T04:17:37.470Z,20
2019-04-24T04:19:14.465Z,25
2019-04-24T04:19:48.496Z,25
2019-04-24T04:21:53.851Z,25
2019-04-24T04:24:39.946Z,30
2019-04-24T04:25:26.324Z,30
2019-04-24T04:26:07.225Z,30
2019-04-24T04:27:26.964Z,30
2019-04-24T04:28:42.973Z,30
2019-04-24T04:29:56.427Z,30
2019-04-24T04:31:14.120Z,30
2019-04-24T04:31:28.328Z,30
2019-04-24T04:31:46.470Z,30
2019-04-24T04:33:40.266Z,35
2019-04-24T04:34:09.828Z,35
2019-04-24T04:34:57.315Z,35
2019-04-24T04:35:36.183Z,35
2019-04-24T04:37:27.829Z,35
2019-04-24T04:39:30.897Z,35
2019-04-24T04:40:08.386Z,35
2019-04-24T04:42:57.994Z,40
2019-04-24T04:44:14.669Z,40
2019-04-24T04:44:53.587Z,40
2019-04-24T04:46:02.605Z,45
2019-04-24T04:46:23.625Z,45
2019-04-24T04:48:24.915Z,45
2019-04-24T04:49:07.590Z,45
2019-04-24T04:50:24.871Z,45
2019-04-24T04:52:22.223Z,50
2019-04-24T04:53:21.215Z,50
2019-04-24T04:54:47.257Z,50
2019-04-24T04:56:30.212Z,55
2019-04-24T04:57:00.808Z,55
2019-04-24T04:57:58.298Z,60
2019-04-24T04:58:31.577Z,60
2019-04-24T04:59:53.288Z,65
2019-04-24T05:01:32.192Z,65
2019-04-24T05:03:14.575Z,70
2019-04-24T05:03:48.263Z,70
2019-04-24T05:05:41.120Z,75
2019-04-24T05:09:03.863Z,85
2019-04-24T05:10:01.397Z,90
2019-04-24T05:11:18.047Z,90
2019-04-24T05:11:57.536Z,95
2019-04-24T05:12:48.481Z,95
2019-04-24T05:13:34.353Z,95
2019-04-24T05:14:29.379Z,95
2019-04-24T05:15:00.245Z,95
2019-04-24T05:15:09.856Z,95
2019-04-24T05:16:03.326Z,95
2019-04-24T05:16:50.387Z,95
2019-04-24T05:19:05.947Z,100
2019-04-24T05:19:47.474Z,100
2019-04-24T05:20:47.233Z,100
2019-04-24T05:21:32.983Z,100
2019-04-24T05:22:37.814Z,100
2019-04-24T05:23:52.510Z,105
2019-04-24T05:24:08.950Z,105
2019-04-24T05:24:38.865Z,105
2019-04-24T05:25:42.372Z,105
2019-04-24T05:28:01.357Z,100
2019-04-24T05:28:52.948Z,100
2019-04-24T05:29:38.771Z,100
2019-04-24T05:30:41.457Z,100
2019-04-24T05:31:32.513Z,100
2019-04-24T05:32:10.984Z,100
2019-04-24T05:34:16.934Z,100
2019-04-24T05:34:52.434Z,100
2019-04-24T05:35:38.710Z,100
2019-04-24T05:36:25.447Z,100
2019-04-24T05:36:49.254Z,100
2019-04-24T05:38:31.935Z,100
2019-04-24T05:39:44.508Z,100
2019-04-24T05:40:17.577Z,100
2019-04-24T05:41:37.153Z,105
2019-04-24T05:42:30.980Z,105
2019-04-24T05:44:18.602Z,115
2019-04-24T05:45:03.598Z,120
2019-04-24T05:46:23.960Z,125
2019-04-24T05:46:54.946Z,130
2019-04-24T05:48:25.839Z,135
2019-04-24T05:49:51.405Z,140
2019-04-24T05:50:25.984Z,135
2019-04-24T05:51:01.196Z,140
2019-04-24T05:51:45.919Z,140
2019-04-24T05:52:32.195Z,140
2019-04-24T05:53:51.150Z,145
2019-04-24T05:54:31.528Z,150
2019-04-24T05:55:09.445Z,155
2019-04-24T05:57:39.714Z,170
2019-04-24T05:58:27.754Z,185
2019-04-24T05:59:13.270Z,195
2019-04-24T06:01:15.510Z,300
2019-04-24T06:02:42.882Z,365
2019-04-24T06:03:09.462Z,405
2019-04-24T06:04:51.923Z,285
2019-04-24T06:06:05.627Z,190
2019-04-24T06:06:56.308Z,160
2019-04-24T06:08:41.292Z,125
2019-04-24T06:09:20.673Z,115
2019-04-24T06:10:46.834Z,105
2019-04-24T06:11:38.354Z,110
2019-04-24T06:12:06.498Z,105
2019-04-24T06:13:41.544Z,100
2019-04-24T06:13:59.364Z,100
2019-04-24T06:14:48.381Z,100
2019-04-24T06:15:41.312Z,105
2019-04-24T06:17:29.387Z,105
2019-04-24T06:18:16.031Z,105
2019-04-24T06:18:49.136Z,105
2019-04-24T06:19:32.279Z,100
2019-04-24T06:20:30.887Z,100
2019-04-24T06:21:27.770Z,100
2019-04-24T06:22:17.250Z,100
2019-04-24T06:24:20.820Z,100
2019-04-24T06:24:56.320Z,100
2019-04-24T06:26:57.824Z,100
2019-04-24T06:27:37.892Z,100
2019-04-24T06:28:27.005Z,100
2019-04-24T06:29:58.198Z,100
2019-04-24T06:30:23.406Z,100
2019-04-24T06:31:09.523Z,100
2019-04-24T06:32:04.639Z,100
2019-04-24T06:32:47.406Z,110
2019-04-24T06:33:57.159Z,105
2019-04-24T06:35:56.247Z,105
2019-04-24T06:36:50.715Z,105
2019-04-24T06:38:35.496Z,100
2019-04-24T06:41:12.330Z,100
2019-04-24T06:42:40.989Z,100
2019-04-24T06:43:07.381Z,100
2019-04-24T06:44:55.956Z,100
2019-04-24T06:48:33.139Z,105
2019-04-24T06:49:42.616Z,100
2019-04-24T06:51:11.424Z,105
2019-04-24T06:52:11.906Z,115
2019-04-24T06:52:45.950Z,115
2019-04-24T06:53:09.588Z,120
2019-04-24T06:53:58.649Z,125
2019-04-24T06:54:48.043Z,135
2019-04-24T06:55:23.123Z,150
2019-04-24T06:57:26.611Z,160
2019-04-24T06:58:01.081Z,175
2019-04-24T06:58:45.273Z,195
2019-04-24T07:00:27.811Z,205
2019-04-24T07:01:29.642Z,240
2019-04-24T07:02:09.430Z,200
2019-04-24T07:03:46.884Z,180
2019-04-24T07:05:02.651Z,230
2019-04-24T07:05:45.785Z,275
2019-04-24T07:06:48.704Z,250
2019-04-24T07:07:52.364Z,170
2019-04-24T07:09:13.746Z,165
2019-04-24T07:09:33.196Z,170
2019-04-24T07:10:29.169Z,170
2019-04-24T07:11:01.035Z,180
2019-04-24T07:11:39.763Z,195
2019-04-24T07:12:34.915Z,200
2019-04-24T07:13:00.378Z,250
2019-04-24T07:14:58.050Z,1205
2019-04-24T07:16:37.036Z,1100
2019-04-24T07:17:19.883Z,1250
2019-04-24T07:17:48.132Z,1165
2019-04-24T07:18:25.794Z,1115
2019-04-24T07:18:56.463Z,1145
2019-04-24T07:20:43.592Z,1035
2019-04-24T07:21:50.244Z,1085
2019-04-24T07:23:11.460Z,1055
2019-04-24T07:23:53.047Z,1025
2019-04-24T07:24:40.733Z,1005
2019-04-24T07:27:10.631Z,670
2019-04-24T07:27:57.402Z,650
2019-04-24T07:28:40.029Z,675
2019-04-24T07:30:45.251Z,720
2019-04-24T07:31:55.502Z,675
2019-04-24T07:32:57.846Z,665
2019-04-24T07:33:22.807Z,605
2019-04-24T07:34:08.122Z,575
2019-04-24T07:36:03.426Z,590
2019-04-24T07:36:51.885Z,610
2019-04-24T07:37:28.755Z,615
2019-04-24T07:38:40.195Z,590
2019-04-24T07:39:36.514Z,560
2019-04-24T07:40:11.224Z,525
2019-04-24T07:41:32.417Z,490
2019-04-24T07:42:07.619Z,460
2019-04-24T07:42:53.691Z,425
2019-04-24T07:43:46.564Z,375
2019-04-24T07:44:50.304Z,365
2019-04-24T07:46:09.507Z,310
2019-04-24T07:46:53.841Z,295
2019-04-24T07:47:27.029Z,270
2019-04-24T07:48:08.872Z,265
2019-04-24T07:49:45.850Z,250
2019-04-24T07:50:14.974Z,245
2019-04-24T07:52:18.985Z,240
2019-04-24T07:53:03.566Z,235
2019-04-24T07:53:55.677Z,235
2019-04-24T07:54:21.864Z,240
2019-04-24T07:55:42.645Z,250
2019-04-24T07:57:35.539Z,265
2019-04-24T07:58:25.532Z,260
2019-04-24T08:00:18.525Z,270
2019-04-24T08:01:05.892Z,365
2019-04-24T08:01:53.622Z,480
2019-04-24T08:02:25.406Z,475
2019-04-24T08:03:01.814Z,370
2019-04-24T08:04:05.650Z,300
2019-04-24T08:04:36.626Z,340
2019-04-24T08:04:59.472Z,415
2019-04-24T08:05:40.681Z,430
2019-04-24T08:07:47.127Z,445
2019-04-24T08:08:43.800Z,450
2019-04-24T08:09:19.028Z,450
2019-04-24T08:10:09.374Z,455
2019-04-24T08:10:56.066Z,460
2019-04-24T08:11:58.674Z,450
2019-04-24T08:12:48.084Z,450
2019-04-24T08:13:54.498Z,435
2019-04-24T08:15:52.458Z,420
2019-04-24T08:16:31.602Z,430
2019-04-24T08:17:29.202Z,425
2019-04-24T08:18:00.603Z,420
2019-04-24T08:18:31.104Z,410
2019-04-24T08:19:28.459Z,405
2019-04-24T08:20:09.910Z,405
2019-04-24T08:21:15.372Z,400
2019-04-24T08:22:05.430Z,395
2019-04-24T08:22:43.042Z,385
2019-04-24T08:23:31.747Z,380
2019-04-24T08:24:00.204Z,375
2019-04-24T08:25:25.963Z,365
2019-04-24T08:26:04.053Z,360
2019-04-24T08:26:48.315Z,360
2019-04-24T08:27:35.842Z,355
2019-04-24T08:28:04.688Z,355
2019-04-24T08:28:50.080Z,350
2019-04-24T08:29:37.046Z,350
2019-04-24T08:30:11.043Z,340
2019-04-24T08:30:59.833Z,335
2019-04-24T08:31:38.301Z,335
2019-04-24T08:35:48.549Z,315
2019-04-24T08:36:05.815Z,310
2019-04-24T08:37:46.105Z,305
2019-04-24T08:38:17.245Z,300
2019-04-24T08:39:20.159Z,295
2019-04-24T08:40:13.084Z,295
2019-04-24T08:41:51.383Z,290
2019-04-24T08:42:24.671Z,290
2019-04-24T08:43:43.870Z,285
2019-04-24T08:44:24.919Z,280
2019-04-24T08:45:36.777Z,275
2019-04-24T08:46:24.101Z,275
2019-04-24T08:47:03.312Z,275
2019-04-24T08:49:50.105Z,260
2019-04-24T08:50:47.462Z,260
2019-04-24T08:52:46.616Z,255
2019-04-24T08:53:53.957Z,240
2019-04-24T08:54:27.155Z,240
2019-04-24T08:55:16.839Z,240
2019-04-24T08:56:35.688Z,235
2019-04-24T08:57:13.556Z,235
2019-04-24T08:58:12.275Z,235
2019-04-24T08:58:35.280Z,240
2019-04-24T09:00:04.469Z,235
2019-04-24T09:00:41.078Z,230
2019-04-24T09:01:54.898Z,225
2019-04-24T09:02:46.740Z,225
2019-04-24T09:03:23.810Z,215
2019-04-24T09:04:53.999Z,200
2019-04-24T09:05:05.736Z,215
2019-04-24T09:05:58.842Z,220
2019-04-24T09:06:39.838Z,225
2019-04-24T09:07:21.029Z,225
2019-04-24T09:10:19.395Z,215
2019-04-24T09:12:58.242Z,195
2019-04-24T09:13:34.748Z,185
2019-04-24T09:14:06.213Z,180
2019-04-24T09:15:36.426Z,160
2019-04-24T09:16:22.815Z,145
2019-04-24T09:17:22.711Z,125
2019-04-24T09:18:13.435Z,125
2019-04-24T09:19:27.196Z,120
2019-04-24T09:20:22.168Z,120
2019-04-24T09:20:55.480Z,115
2019-04-24T09:22:11.280Z,115
2019-04-24T09:24:35.097Z,125
2019-04-24T09:25:16.670Z,120
2019-04-24T09:25:50.411Z,125
2019-04-24T09:26:43.937Z,130
2019-04-24T09:28:24.963Z,155
2019-04-24T09:30:03.156Z,185
2019-04-24T09:31:01.267Z,195
2019-04-24T09:32:11.586Z,195
2019-04-24T09:32:42.712Z,200
2019-04-24T09:33:09.135Z,195
2019-04-24T09:33:45.644Z,195
2019-04-24T09:34:16.389Z,195
2019-04-24T09:35:04.284Z,195
2019-04-24T09:37:54.686Z,195
2019-04-24T09:38:37.229Z,190
2019-04-24T09:39:13.094Z,190
2019-04-24T09:40:12.854Z,190
2019-04-24T09:41:23.783Z,195
2019-04-24T09:42:55.483Z,185
2019-04-24T09:44:40.996Z,180
2019-04-24T09:45:55.478Z,180
2019-04-24T09:47:21.487Z,175
2019-04-24T09:48:50.135Z,175
2019-04-24T09:49:06.384Z,175
2019-04-24T09:50:07.761Z,175
2019-04-24T09:50:50.786Z,170
2019-04-24T09:52:00.650Z,175
2019-04-24T09:53:19.692Z,170
2019-04-24T09:54:47.044Z,165
2019-04-24T09:55:24.554Z,165
2019-04-24T09:56:15.056Z,165
2019-04-24T09:56:52.668Z,165
2019-04-24T09:57:34.302Z,165
2019-04-24T09:58:13.257Z,165
2019-04-24T10:00:04.615Z,160
2019-04-24T10:02:17.129Z,160
2019-04-24T10:04:18.315Z,160
2019-04-24T10:05:02.818Z,155
2019-04-24T10:05:35.723Z,155
2019-04-24T10:06:12.921Z,155
2019-04-24T10:07:11.830Z,155
2019-04-24T10:08:53.863Z,155
2019-04-24T10:09:38.263Z,155
2019-04-24T10:10:15.601Z,155
2019-04-24T10:10:53.946Z,150
2019-04-24T10:12:34.632Z,150
2019-04-24T10:12:54.040Z,150
2019-04-24T10:13:41.256Z,150
2019-04-24T10:14:35.653Z,150
2019-04-24T10:15:07.355Z,150
2019-04-24T10:15:46.599Z,150
2019-04-24T10:16:19.396Z,145
2019-04-24T10:18:29.024Z,145
2019-04-24T10:19:06.774Z,145
2019-04-24T10:20:05.247Z,145
2019-04-24T10:20:19.457Z,145
2019-04-24T10:20:59.546Z,145
2019-04-24T10:21:48.312Z,140
2019-04-24T10:22:26.356Z,140
2019-04-24T10:23:11.855Z,140
2019-04-24T10:23:54.636Z,140
2019-04-24T10:24:31.061Z,140
2019-04-24T10:25:11.744Z,145
2019-04-24T10:25:43.870Z,140
2019-04-24T10:26:25.124Z,140
2019-04-24T10:27:08.531Z,140
2019-04-24T10:27:52.142Z,145
2019-04-24T10:28:39.638Z,140
2019-04-24T10:29:52.972Z,145
2019-04-24T10:30:42.350Z,140
2019-04-24T10:31:12.970Z,140
2019-04-24T10:32:05.455Z,140
2019-04-24T10:32:37.093Z,140
2019-04-24T10:33:18.871Z,140
2019-04-24T10:34:50.871Z,135
2019-04-24T10:35:25.077Z,140
2019-04-24T10:36:10.005Z,135
2019-04-24T10:36:49.728Z,135
2019-04-24T10:37:17.502Z,135
2019-04-24T10:38:29.504Z,135
2019-04-24T10:38:38.963Z,135
2019-04-24T10:40:14.607Z,135
2019-04-24T10:40:46.875Z,130
2019-04-24T10:41:23.460Z,130
2019-04-24T10:42:46.054Z,130
2019-04-24T10:43:24.467Z,130
2019-04-24T10:44:07.613Z,130
2019-04-24T10:44:45.573Z,130
2019-04-24T10:46:03.345Z,125
2019-04-24T10:46:58.297Z,125
2019-04-24T10:48:04.546Z,125
2019-04-24T10:48:50.507Z,125
2019-04-24T10:49:38.193Z,125
2019-04-24T10:50:04.407Z,125
2019-04-24T10:50:53.993Z,125
2019-04-24T10:51:47.038Z,125
2019-04-24T10:52:10.172Z,125
2019-04-24T10:53:00.901Z,125
2019-04-24T10:53:36.093Z,125
2019-04-24T10:54:11.164Z,125
2019-04-24T10:54:57.720Z,125
2019-04-24T10:55:58.914Z,125
2019-04-24T10:56:22.950Z,125
2019-04-24T10:56:56.461Z,125
2019-04-24T10:57:49.312Z,125
2019-04-24T10:58:18.977Z,125
2019-04-24T10:58:54.762Z,125
2019-04-24T10:59:58.160Z,125
2019-04-24T11:00:22.460Z,125
2019-04-24T11:02:32.691Z,125
2019-04-24T11:03:04.608Z,120
2019-04-24T11:03:56.841Z,120
2019-04-24T11:04:37.176Z,120
2019-04-24T11:05:11.582Z,120
2019-04-24T11:05:55.847Z,120
2019-04-24T11:07:12.386Z,120
2019-04-24T11:08:00.916Z,120
2019-04-24T11:08:35.128Z,120
2019-04-24T11:09:23.953Z,120
2019-04-24T11:10:09.905Z,120
2019-04-24T11:11:07.317Z,120
2019-04-24T11:12:10.551Z,120
2019-04-24T11:12:40.136Z,120
2019-04-24T11:13:27.323Z,120
2019-04-24T11:13:55.115Z,120
2019-04-24T11:14:30.967Z,120
2019-04-24T11:15:19.991Z,120
2019-04-24T11:16:07.761Z,115
2019-04-24T11:16:48.706Z,120
2019-04-24T11:17:22.505Z,120
2019-04-24T11:17:59.874Z,120
2019-04-24T11:18:52.079Z,125
2019-04-24T11:19:25.380Z,120
2019-04-24T11:21:49.308Z,115
2019-04-24T11:22:02.183Z,120
2019-04-24T11:24:11.036Z,115
2019-04-24T11:26:56.203Z,115
2019-04-24T11:27:25.369Z,115
2019-04-24T11:28:11.268Z,115
2019-04-24T11:28:49.179Z,120
2019-04-24T11:29:30.543Z,120
2019-04-24T11:30:09.534Z,125
2019-04-24T11:30:51.539Z,120
2019-04-24T11:31:31.060Z,120
2019-04-24T11:32:51.347Z,125
2019-04-24T11:34:26.012Z,125
2019-04-24T11:35:09.554Z,125
2019-04-24T11:35:24.778Z,125
2019-04-24T11:36:21.518Z,125
2019-04-24T11:37:39.383Z,125
2019-04-24T11:38:18.533Z,130
2019-04-24T11:39:59.618Z,125
2019-04-24T11:41:00.225Z,125
2019-04-24T11:42:16.018Z,120
2019-04-24T11:43:50.082Z,120
2019-04-24T11:45:10.583Z,120
2019-04-24T11:46:45.767Z,120
2019-04-24T11:47:54.840Z,120
2019-04-24T11:48:28.484Z,125
2019-04-24T11:49:10.590Z,120
2019-04-24T11:52:00.527Z,120
2019-04-24T11:53:10.974Z,120
2019-04-24T11:53:48.350Z,115
2019-04-24T11:54:48.459Z,115
2019-04-24T11:55:19.807Z,115
2019-04-24T11:56:03.747Z,115
2019-04-24T11:56:36.813Z,110
2019-04-24T11:57:26.433Z,110
2019-04-24T11:58:12.753Z,115
2019-04-24T11:58:46.449Z,115
2019-04-24T11:59:35.442Z,115
2019-04-24T12:00:22.187Z,120
2019-04-24T12:01:01.668Z,120
2019-04-24T12:02:11.505Z,120
2019-04-24T12:02:32.046Z,125
2019-04-24T12:03:12.099Z,130
2019-04-24T12:03:56.006Z,130
2019-04-24T12:05:22.254Z,130
2019-04-24T12:06:10.588Z,130
2019-04-24T12:06:46.174Z,135
2019-04-24T12:07:15.172Z,130
2019-04-24T12:09:13.392Z,125
2019-04-24T12:10:00.956Z,125
2019-04-24T12:10:38.944Z,120
2019-04-24T12:11:32.073Z,125
2019-04-24T12:11:58.228Z,125
2019-04-24T12:12:41.351Z,125
2019-04-24T12:14:46.099Z,135
2019-04-24T12:15:27.826Z,135
2019-04-24T12:17:33.129Z,120
2019-04-24T12:18:14.514Z,120
2019-04-24T12:19:35.374Z,120
2019-04-24T12:20:58.713Z,130
2019-04-24T12:22:09.820Z,130
2019-04-24T12:22:49.478Z,130
2019-04-24T12:23:54.583Z,130
2019-04-24T12:24:09.045Z,130
2019-04-24T12:24:53.570Z,125
2019-04-24T12:25:40.957Z,125
2019-04-24T12:26:45.926Z,125
2019-04-24T12:27:42.393Z,120
2019-04-24T12:28:25.492Z,120
2019-04-24T12:29:00.148Z,120
2019-04-24T12:30:15.617Z,115
2019-04-24T12:30:55.227Z,115
2019-04-24T12:31:42.098Z,115
2019-04-24T12:32:54.376Z,115
2019-04-24T12:33:43.679Z,115
2019-04-24T12:34:13.726Z,115
2019-04-24T12:34:58.700Z,120
2019-04-24T12:35:42.326Z,120
2019-04-24T12:36:20.401Z,120
2019-04-24T12:37:04.779Z,120
2019-04-24T12:37:48.464Z,125
2019-04-24T12:38:31.390Z,120
2019-04-24T12:39:03.186Z,120
2019-04-24T12:39:48.063Z,120
2019-04-24T12:41:44.063Z,120
2019-04-24T12:42:32.966Z,120
2019-04-24T12:43:22.179Z,120
2019-04-24T12:44:40.259Z,120
2019-04-24T12:45:08.423Z,120
2019-04-24T12:45:55.309Z,120
2019-04-24T12:46:28.232Z,120
2019-04-24T12:47:16.941Z,120
2019-04-24T12:47:52.574Z,115
2019-04-24T12:48:47.237Z,120
2019-04-24T12:50:43.372Z,115
2019-04-24T12:51:09.561Z,115
2019-04-24T12:51:55.243Z,115
2019-04-24T12:52:35.378Z,115
2019-04-24T12:53:13.960Z,115
2019-04-24T12:54:05.442Z,115
2019-04-24T12:55:33.786Z,115
2019-04-24T12:56:14.120Z,115
2019-04-24T12:58:58.059Z,115
2019-04-24T12:59:21.466Z,115
2019-04-24T12:59:54.897Z,115
2019-04-24T13:00:52.604Z,115
2019-04-24T13:01:26.283Z,115
2019-04-24T13:02:03.208Z,115
2019-04-24T13:02:49.462Z,115
2019-04-24T13:03:36.830Z,115
2019-04-24T13:04:26.046Z,115
2019-04-24T13:06:00.105Z,115
2019-04-24T13:06:33.218Z,115
2019-04-24T13:07:29.382Z,115
2019-04-24T13:08:31.575Z,120
2019-04-24T13:09:37.254Z,115
2019-04-24T13:10:13.986Z,115
2019-04-24T13:11:37.575Z,115
2019-04-24T13:12:25.077Z,115
2019-04-24T13:13:49.026Z,115
2019-04-24T13:14:27.582Z,115
2019-04-24T13:15:36.504Z,120
2019-04-24T13:16:19.450Z,115
2019-04-24T13:17:12.517Z,115
2019-04-24T13:17:50.505Z,115
2019-04-24T13:18:32.120Z,120
2019-04-24T13:19:11.896Z,115
2019-04-24T13:19:57.020Z,120
2019-04-24T13:20:40.985Z,120
2019-04-24T13:21:25.101Z,115
2019-04-24T13:22:07.098Z,120
2019-04-24T13:22:46.970Z,120
2019-04-24T13:23:37.071Z,120
2019-04-24T13:24:10.920Z,120
2019-04-24T13:24:57.415Z,125
2019-04-24T13:25:46.114Z,120
2019-04-24T13:26:27.970Z,120
2019-04-24T13:27:15.889Z,120
2019-04-24T13:28:10.939Z,120
2019-04-24T13:28:36.962Z,120
2019-04-24T13:29:26.174Z,120
2019-04-24T13:30:02.231Z,120
2019-04-24T13:30:41.198Z,120
2019-04-24T13:31:55.783Z,120
2019-04-24T13:32:34.628Z,120
2019-04-24T13:33:52.005Z,120
2019-04-24T13:34:41.576Z,120
2019-04-24T13:37:24.583Z,120
2019-04-24T13:38:45.104Z,120
2019-04-24T13:39:23.828Z,120
2019-04-24T13:40:07.197Z,120
2019-04-24T13:41:13.101Z,120
2019-04-24T13:42:07.500Z,120
2019-04-24T13:42:47.837Z,120
2019-04-24T13:43:35.567Z,120
2019-04-24T13:44:16.018Z,120
2019-04-24T13:44:54.131Z,120
2019-04-24T13:46:08.915Z,120
2019-04-24T13:46:47.400Z,120
2019-04-24T13:47:35.740Z,125
2019-04-24T13:48:53.657Z,120
2019-04-24T13:49:26.784Z,120
2019-04-24T13:50:50.382Z,120
2019-04-24T13:51:30.950Z,120
2019-04-24T13:52:36.810Z,120
2019-04-24T13:53:56.193Z,125
2019-04-24T13:55:03.620Z,125
2019-04-24T13:55:42.804Z,125
2019-04-24T13:56:09.120Z,125
2019-04-24T13:57:00.023Z,125
2019-04-24T13:57:37.934Z,125
2019-04-24T13:58:21.661Z,125
2019-04-24T13:58:56.819Z,125
2019-04-24T13:59:44.115Z,125
2019-04-24T14:00:28.074Z,125
2019-04-24T14:01:05.759Z,125
2019-04-24T14:01:47.096Z,125
2019-04-24T14:02:24.367Z,125
2019-04-24T14:04:00.363Z,125
2019-04-24T14:04:21.485Z,125
2019-04-24T14:05:08.594Z,125
2019-04-24T14:05:58.307Z,125
2019-04-24T14:07:13.575Z,125
2019-04-24T14:07:57.982Z,125
2019-04-24T14:09:13.880Z,125
2019-04-24T14:10:43.381Z,125
2019-04-24T14:11:39.760Z,125
2019-04-24T14:13:12.478Z,125
2019-04-24T14:13:59.401Z,125